Lt Dick Dowling — WDJ3993 — position and weather

sailwx.info

Track history (hours):
 
Tides and Currents Weather Stations Pressure Air Temp Water Temp Dewpoint Dewpoint Depression Visibility Wind Speed Wind Dir Waves Ship Positions

Lt Dick Dowling

Owner: Buffalo Marine Service, Inc., Houston, TX. More information available from US FCC via Universal Licensing System and Coast Guard Vessel Documentation Center.

Last reported at 2018-Jul-23 12:41 UTC. Time now 2018-Jul-23 15:03 UTC.
Position N 29°44' W 095°16'.

Length 21 m; draft 9.5 m.

Type: Tug. MMSI: 367773360.

Date/timePositionNaut miles runAvg speedWind from/ knotsBaromVisibWave heightAir tempDewpointWater temp
2018-Jul-23 12:41N 29°44' W 095°16'0 0.0
2018-Jul-23 12:26N 29°44' W 095°16'0 0.0
2018-Jul-23 11:26N 29°44' W 095°16'0 0.0
2018-Jul-23 10:36N 29°44' W 095°16'0 2.2
2018-Jul-23 10:30N 29°43' W 095°16'0 0.0
2018-Jul-23 05:00N 29°43' W 095°16'0 0.2
2018-Jul-23 03:44N 29°43' W 095°16'2 5.7
2018-Jul-23 03:28N 29°43' W 095°15'4 5.6
2018-Jul-23 02:44N 29°45' W 095°10'1 6.1
2018-Jul-23 02:30N 29°44' W 095°09'2 0.2
2018-Jul-22 13:19N 29°46' W 095°07'1 2.9
2018-Jul-22 13:00N 29°45' W 095°06'3 5.0
2018-Jul-22 12:27N 29°44' W 095°03'0 0.1
2018-Jul-22 10:53N 29°44' W 095°03'0 0.0
2018-Jul-22 10:17N 29°44' W 095°03'0 0.0
2018-Jul-22 09:41N 29°44' W 095°03'0 0.0
2018-Jul-22 09:29N 29°44' W 095°03'0 0.0
2018-Jul-22 08:35N 29°44' W 095°03'0 0.0
2018-Jul-22 08:29N 29°44' W 095°03'0 0.0
2018-Jul-22 07:47N 29°44' W 095°03'0 0.0
2018-Jul-22 07:23N 29°44' W 095°03'0 0.0
2018-Jul-22 06:59N 29°44' W 095°03'0 0.0
2018-Jul-22 06:29N 29°44' W 095°03'0 0.0
2018-Jul-22 05:56N 29°44' W 095°03'0 0.0
2018-Jul-22 04:59N 29°44' W 095°03'0 0.0
2018-Jul-22 04:08N 29°44' W 095°03'0 0.0
2018-Jul-22 03:50N 29°44' W 095°03'0 0.1
2018-Jul-22 03:26N 29°44' W 095°03'2 4.1
2018-Jul-22 02:57N 29°46' W 095°04'2 0.1
2018-Jul-21 16:08N 29°46' W 095°06'1 4.0
2018-Jul-21 16:00N 29°46' W 095°05'3 5.1
2018-Jul-21 15:29N 29°44' W 095°03'3 5.8
2018-Jul-21 14:58N 29°42' W 095°01'3 6.1
2018-Jul-21 14:25N 29°39' W 094°58'6 6.9
2018-Jul-21 13:30N 29°34' W 094°55'6 6.9
2018-Jul-21 12:41N 29°29' W 094°52'1 7.2
2018-Jul-21 12:29N 29°28' W 094°51'5 7.3
2018-Jul-21 11:51N 29°23' W 094°49'2 4.4
2018-Jul-21 11:29N 29°22' W 094°49'4 7.5
2018-Jul-21 11:00N 29°23' W 094°53'1 0.2
2018-Jul-21 06:02N 29°22' W 094°53'0 0.0
2018-Jul-21 05:35N 29°22' W 094°53'0 0.0
2018-Jul-21 04:50N 29°22' W 094°53'0 0.0
2018-Jul-21 04:26N 29°22' W 094°53'0 0.0
2018-Jul-21 03:59N 29°22' W 094°53'0 0.0
2018-Jul-21 03:20N 29°22' W 094°53'0 0.0
2018-Jul-21 02:59N 29°22' W 094°53'0 0.0
2018-Jul-21 02:26N 29°22' W 094°53'0 0.0
2018-Jul-21 01:59N 29°22' W 094°53'0 0.0
2018-Jul-21 01:29N 29°22' W 094°53'0 0.0
2018-Jul-21 00:58N 29°22' W 094°53'0 0.0
2018-Jul-21 00:29N 29°22' W 094°53'0 0.0
2018-Jul-20 23:29N 29°22' W 094°53'0 0.4
2018-Jul-20 22:47N 29°22' W 094°53'2 5.4
2018-Jul-20 22:28N 29°23' W 094°51'3 5.8
2018-Jul-20 22:00N 29°22' W 094°48'10 7.1
2018-Jul-20 20:36N 29°31' W 094°53'1 7.2
2018-Jul-20 20:28N 29°32' W 094°54'3 7.0
2018-Jul-20 20:00N 29°35' W 094°56'4 7.1
2018-Jul-20 19:30N 29°38' W 094°58'4 7.1
2018-Jul-20 19:00N 29°41' W 094°59'4 6.4
2018-Jul-20 18:23N 29°44' W 095°02'12 1.4
2018-Jul-20 09:50N 29°43' W 095°17'0 0.0
2018-Jul-20 09:26N 29°43' W 095°17'0 0.0
2018-Jul-20 08:56N 29°43' W 095°17'0 0.0
2018-Jul-20 07:41N 29°43' W 095°17'0 0.0
2018-Jul-20 07:11N 29°43' W 095°17'0 0.0
2018-Jul-20 06:41N 29°43' W 095°17'0 0.0
2018-Jul-20 06:29N 29°43' W 095°17'0 0.2
2018-Jul-20 03:17N 29°43' W 095°16'5 6.0
2018-Jul-20 02:22N 29°45' W 095°10'8 5.1
2018-Jul-20 00:45N 29°42' W 095°01'2 6.7
2018-Jul-20 00:30N 29°41' W 094°59'1 0.1
2018-Jul-19 14:27N 29°41' W 095°00'0 0.0
2018-Jul-19 13:27N 29°41' W 095°00'0 0.0
2018-Jul-19 12:36N 29°41' W 095°00'0 0.0
2018-Jul-19 11:45N 29°41' W 095°00'0 0.0
2018-Jul-19 11:23N 29°41' W 095°00'0 0.0
2018-Jul-19 10:45N 29°41' W 095°00'0 1.0
2018-Jul-19 10:21N 29°41' W 095°00'0 0.0
2018-Jul-19 09:51N 29°41' W 095°00'0 0.0
2018-Jul-19 09:30N 29°41' W 095°00'0 0.0
2018-Jul-19 08:54N 29°41' W 095°00'0 0.0
2018-Jul-19 06:48N 29°41' W 095°00'0 0.0
2018-Jul-19 06:21N 29°41' W 095°00'0 0.7
2018-Jul-19 05:57N 29°41' W 095°00'0 0.3
2018-Jul-19 05:31N 29°41' W 095°00'2 4.8
2018-Jul-19 05:00N 29°39' W 094°58'3 5.2
2018-Jul-19 04:31N 29°37' W 094°59'1 2.8
2018-Jul-19 03:58N 29°37' W 095°00'0 0.0
2018-Jul-19 03:28N 29°37' W 095°00'0 0.0
2018-Jul-19 02:58N 29°37' W 095°00'0 0.0
2018-Jul-19 02:28N 29°37' W 095°00'0 0.0
2018-Jul-19 01:58N 29°37' W 095°00'0 0.0
2018-Jul-19 01:28N 29°37' W 095°00'0 0.0
2018-Jul-19 00:58N 29°37' W 095°00'0 0.0
2018-Jul-19 00:28N 29°37' W 095°00'0 0.0
2018-Jul-18 22:46N 29°37' W 095°00'0 0.0
2018-Jul-18 22:25N 29°37' W 095°00'0 0.0
2018-Jul-18 19:23N 29°37' W 095°00'0 0.0
2018-Jul-18 16:06N 29°37' W 095°00'0 1.9
2018-Jul-18 16:00N 29°37' W 095°00'2 4.5
2018-Jul-18 15:28N 29°38' W 094°58'3 6.9
2018-Jul-18 14:58N 29°41' W 094°59'7 6.0
2018-Jul-18 13:44N 29°46' W 095°06'1 1.7
2018-Jul-18 13:18N 29°47' W 095°06'2 4.6
2018-Jul-18 12:47N 29°44' W 095°07'2 7.1
2018-Jul-18 12:30N 29°44' W 095°09'3 6.0
2018-Jul-18 11:56N 29°43' W 095°13'3 0.8
2018-Jul-18 08:32N 29°43' W 095°16'1 4.6
2018-Jul-18 08:22N 29°44' W 095°15'3 6.8
2018-Jul-18 07:58N 29°44' W 095°12'4 7.6
2018-Jul-18 07:29N 29°44' W 095°08'4 7.2
2018-Jul-18 06:59N 29°46' W 095°04'4 7.7
2018-Jul-18 06:30N 29°43' W 095°01'4 7.8
2018-Jul-18 05:59N 29°40' W 094°58'4 8.5
2018-Jul-18 05:30N 29°36' W 094°57'4 8.5
2018-Jul-18 05:00N 29°32' W 094°54'5 8.6
2018-Jul-18 04:29N 29°29' W 094°51'4 8.9
2018-Jul-18 03:59N 29°25' W 094°49'5 5.5
2018-Jul-18 03:02N 29°25' W 094°43'1 6.3
2018-Jul-18 02:53N 29°26' W 094°43'3 7.8
2018-Jul-18 02:30N 29°28' W 094°40'5 7.9
2018-Jul-18 01:55N 29°29' W 094°35'3 8.2
2018-Jul-18 01:30N 29°31' W 094°31'5 7.5
2018-Jul-18 00:54N 29°34' W 094°27'3 6.2
2018-Jul-18 00:25N 29°36' W 094°25'3 6.7
2018-Jul-18 00:00N 29°37' W 094°22'4 7.3
2018-Jul-17 23:30N 29°38' W 094°18'4 7.4
2018-Jul-17 23:00N 29°40' W 094°14'3 6.8
2018-Jul-17 22:30N 29°41' W 094°10'3 6.0
2018-Jul-17 22:01N 29°43' W 094°08'3 7.0
2018-Jul-17 21:31N 29°45' W 094°04'4 7.3
2018-Jul-17 21:01N 29°47' W 094°01'3 6.0
2018-Jul-17 20:31N 29°49' W 093°58'4 7.1
2018-Jul-17 20:01N 29°52' W 093°56'4 8.7
2018-Jul-17 19:31N 29°55' W 093°53'3 6.9
2018-Jul-17 19:00N 29°59' W 093°52'3 4.9
2018-Jul-17 18:30N 29°60' W 093°55'1 2.4
2018-Jul-17 18:01N 29°59' W 093°54'3 5.1
2018-Jul-17 17:30N 29°58' W 093°51'0 0.6
2018-Jul-17 16:59N 29°58' W 093°52'0 0.0
2018-Jul-17 16:29N 29°58' W 093°52'0 0.0
2018-Jul-17 15:59N 29°58' W 093°52'0 0.0
2018-Jul-17 15:29N 29°58' W 093°52'0 0.0
2018-Jul-17 14:59N 29°58' W 093°52'0 0.0
2018-Jul-17 14:29N 29°58' W 093°52'0 0.0
2018-Jul-17 13:59N 29°58' W 093°52'0 0.0
2018-Jul-17 13:29N 29°58' W 093°52'0 0.0
2018-Jul-17 12:59N 29°58' W 093°52'0 0.0
2018-Jul-17 12:29N 29°58' W 093°52'0 0.0
2018-Jul-17 11:59N 29°58' W 093°52'0 0.0
2018-Jul-17 11:29N 29°58' W 093°52'0 0.0
2018-Jul-17 10:56N 29°58' W 093°52'0 0.0
2018-Jul-17 10:29N 29°58' W 093°52'0 0.0
2018-Jul-17 09:59N 29°58' W 093°52'1 3.0
2018-Jul-17 09:30N 29°59' W 093°53'2 4.2
2018-Jul-17 09:01N 29°60' W 093°55'3 5.0
2018-Jul-17 08:30N 29°59' W 093°52'3 5.3
2018-Jul-17 08:00N 29°59' W 093°49'5 9.0
2018-Jul-17 07:28N 30°01' W 093°45'4 8.0
2018-Jul-17 07:00N 30°04' W 093°41'4 8.3
2018-Jul-17 06:30N 30°04' W 093°36'3 5.2
2018-Jul-17 06:00N 30°04' W 093°33'3 5.2
2018-Jul-17 05:25N 30°04' W 093°30'2 5.0
2018-Jul-17 05:00N 30°04' W 093°27'3 5.4
2018-Jul-17 04:28N 30°04' W 093°24'3 5.2
2018-Jul-17 03:52N 30°04' W 093°21'2 5.0
2018-Jul-17 03:30N 30°06' W 093°20'4 7.1
2018-Jul-17 03:01N 30°09' W 093°20'2 3.8
2018-Jul-17 02:28N 30°11' W 093°18'0 0.0
2018-Jul-17 01:55N 30°11' W 093°18'0 0.0
2018-Jul-17 01:28N 30°11' W 093°18'0 0.0
2018-Jul-17 00:58N 30°11' W 093°18'0 0.0
2018-Jul-17 00:28N 30°11' W 093°18'0 0.0
2018-Jul-16 23:28N 30°11' W 093°18'0 0.0
2018-Jul-16 22:58N 30°11' W 093°18'0 0.0
2018-Jul-16 22:28N 30°11' W 093°18'0 0.1
2018-Jul-16 21:58N 30°11' W 093°18'0 0.1
2018-Jul-16 21:26N 30°11' W 093°18'2 5.0
2018-Jul-16 21:00N 30°12' W 093°17'2 4.3
2018-Jul-16 20:30N 30°14' W 093°15'0 0.0
2018-Jul-16 13:33N 30°14' W 093°15'0 0.0
2018-Jul-16 13:03N 30°14' W 093°15'0 0.0
2018-Jul-16 12:39N 30°14' W 093°15'0 0.0
2018-Jul-16 12:30N 30°14' W 093°15'0 0.0
2018-Jul-16 11:57N 30°14' W 093°15'0 0.0
2018-Jul-16 11:30N 30°14' W 093°15'0 0.0
2018-Jul-16 11:00N 30°14' W 093°15'0 0.0
2018-Jul-16 03:24N 30°14' W 093°15'1 1.7
2018-Jul-16 03:00N 30°13' W 093°14'3 6.5
2018-Jul-16 02:30N 30°12' W 093°18'4 7.0
2018-Jul-16 02:00N 30°08' W 093°20'4 7.2
2018-Jul-16 01:30N 30°05' W 093°20'3 5.4
2018-Jul-16 01:00N 30°04' W 093°23'3 6.6
2018-Jul-16 00:30N 30°04' W 093°26'3 6.4
2018-Jul-16 00:00N 30°04' W 093°30'3 6.7
2018-Jul-15 23:30N 30°04' W 093°34'4 7.3
2018-Jul-15 23:00N 30°04' W 093°38'4 7.6
2018-Jul-15 22:29N 30°03' W 093°43'4 7.8
2018-Jul-15 22:00N 30°01' W 093°46'4 8.0
2018-Jul-15 21:30N 29°59' W 093°50'2 3.2
2018-Jul-15 20:59N 29°58' W 093°51'0 0.0
2018-Jul-15 20:29N 29°58' W 093°51'3 6.1
2018-Jul-15 20:01N 29°55' W 093°53'4 8.4
2018-Jul-15 19:30N 29°52' W 093°56'4 7.3
2018-Jul-15 19:00N 29°49' W 093°59'3 6.5
2018-Jul-15 18:30N 29°47' W 094°01'4 7.3
2018-Jul-15 18:00N 29°45' W 094°05'4 7.3
2018-Jul-15 17:30N 29°42' W 094°08'3 6.8
2018-Jul-15 17:01N 29°41' W 094°12'3 6.8
2018-Jul-15 16:31N 29°39' W 094°15'3 6.7
2018-Jul-15 16:00N 29°38' W 094°19'3 6.7
2018-Jul-15 15:29N 29°36' W 094°22'3 5.4
2018-Jul-15 15:00N 29°35' W 094°25'4 6.0
2018-Jul-15 14:23N 29°33' W 094°28'3 7.1
2018-Jul-15 14:00N 29°31' W 094°30'4 7.3
2018-Jul-15 13:30N 29°30' W 094°34'4 7.4
2018-Jul-15 12:58N 29°28' W 094°38'5 7.6
2018-Jul-15 12:18N 29°25' W 094°43'2 8.1
2018-Jul-15 12:00N 29°24' W 094°45'9 5.4
2018-Jul-15 10:22N 29°30' W 094°52'3 8.2
2018-Jul-15 10:00N 29°33' W 094°54'4 8.4
2018-Jul-15 09:30N 29°36' W 094°57'5 8.9
2018-Jul-15 09:00N 29°40' W 094°59'8 4.4
2018-Jul-15 07:15N 29°45' W 095°06'0 0.0
2018-Jul-15 06:09N 29°45' W 095°06'0 0.0
2018-Jul-15 06:00N 29°45' W 095°06'0 0.0
2018-Jul-15 05:27N 29°45' W 095°06'0 0.0
2018-Jul-15 05:00N 29°45' W 095°06'0 0.0
2018-Jul-15 04:31N 29°45' W 095°06'0 0.0
2018-Jul-15 04:00N 29°45' W 095°06'0 0.0
2018-Jul-15 03:27N 29°45' W 095°06'0 0.0
2018-Jul-15 02:57N 29°45' W 095°06'0 0.0
2018-Jul-15 02:31N 29°45' W 095°06'0 0.0
2018-Jul-15 01:58N 29°45' W 095°06'0 0.0
2018-Jul-15 01:30N 29°45' W 095°06'0 0.0
2018-Jul-15 01:00N 29°45' W 095°06'3 4.4
2018-Jul-15 00:22N 29°44' W 095°09'5 0.2
2018-Jul-13 19:21N 29°44' W 095°03'  
Track history (hours):
 
Tides and Currents Weather Stations Pressure Air Temp Water Temp Dewpoint Dewpoint Depression Visibility Wind Speed Wind Dir Waves Ship Positions

Lt Dick Dowling

Owner: Buffalo Marine Service, Inc., Houston, TX. More information available from US FCC via Universal Licensing System and Coast Guard Vessel Documentation Center.

Last reported at 2018-Jul-23 12:41 UTC. Time now 2018-Jul-23 15:03 UTC.
Position N 29°44' W 095°16'.

Length 21 m; draft 9.5 m.

Type: Tug. MMSI: 367773360.

Date/timePositionNaut miles runAvg speedWind from/ knotsBaromVisibWave heightAir tempDewpointWater temp
2018-Jul-23 12:41N 29°44' W 095°16'0 0.0
2018-Jul-23 12:26N 29°44' W 095°16'0 0.0
2018-Jul-23 11:26N 29°44' W 095°16'0 0.0
2018-Jul-23 10:36N 29°44' W 095°16'0 2.2
2018-Jul-23 10:30N 29°43' W 095°16'0 0.0
2018-Jul-23 05:00N 29°43' W 095°16'0 0.2
2018-Jul-23 03:44N 29°43' W 095°16'2 5.7
2018-Jul-23 03:28N 29°43' W 095°15'4 5.6
2018-Jul-23 02:44N 29°45' W 095°10'1 6.1
2018-Jul-23 02:30N 29°44' W 095°09'2 0.2
2018-Jul-22 13:19N 29°46' W 095°07'1 2.9
2018-Jul-22 13:00N 29°45' W 095°06'3 5.0
2018-Jul-22 12:27N 29°44' W 095°03'0 0.1
2018-Jul-22 10:53N 29°44' W 095°03'0 0.0
2018-Jul-22 10:17N 29°44' W 095°03'0 0.0
2018-Jul-22 09:41N 29°44' W 095°03'0 0.0
2018-Jul-22 09:29N 29°44' W 095°03'0 0.0
2018-Jul-22 08:35N 29°44' W 095°03'0 0.0
2018-Jul-22 08:29N 29°44' W 095°03'0 0.0
2018-Jul-22 07:47N 29°44' W 095°03'0 0.0
2018-Jul-22 07:23N 29°44' W 095°03'0 0.0
2018-Jul-22 06:59N 29°44' W 095°03'0 0.0
2018-Jul-22 06:29N 29°44' W 095°03'0 0.0
2018-Jul-22 05:56N 29°44' W 095°03'0 0.0
2018-Jul-22 04:59N 29°44' W 095°03'0 0.0
2018-Jul-22 04:08N 29°44' W 095°03'0 0.0
2018-Jul-22 03:50N 29°44' W 095°03'0 0.1
2018-Jul-22 03:26N 29°44' W 095°03'2 4.1
2018-Jul-22 02:57N 29°46' W 095°04'2 0.1
2018-Jul-21 16:08N 29°46' W 095°06'1 4.0
2018-Jul-21 16:00N 29°46' W 095°05'3 5.1
2018-Jul-21 15:29N 29°44' W 095°03'3 5.8
2018-Jul-21 14:58N 29°42' W 095°01'3 6.1
2018-Jul-21 14:25N 29°39' W 094°58'6 6.9
2018-Jul-21 13:30N 29°34' W 094°55'6 6.9
2018-Jul-21 12:41N 29°29' W 094°52'1 7.2
2018-Jul-21 12:29N 29°28' W 094°51'5 7.3
2018-Jul-21 11:51N 29°23' W 094°49'2 4.4
2018-Jul-21 11:29N 29°22' W 094°49'4 7.5
2018-Jul-21 11:00N 29°23' W 094°53'1 0.2
2018-Jul-21 06:02N 29°22' W 094°53'0 0.0
2018-Jul-21 05:35N 29°22' W 094°53'0 0.0
2018-Jul-21 04:50N 29°22' W 094°53'0 0.0
2018-Jul-21 04:26N 29°22' W 094°53'0 0.0
2018-Jul-21 03:59N 29°22' W 094°53'0 0.0
2018-Jul-21 03:20N 29°22' W 094°53'0 0.0
2018-Jul-21 02:59N 29°22' W 094°53'0 0.0
2018-Jul-21 02:26N 29°22' W 094°53'0 0.0
2018-Jul-21 01:59N 29°22' W 094°53'0 0.0
2018-Jul-21 01:29N 29°22' W 094°53'0 0.0
2018-Jul-21 00:58N 29°22' W 094°53'0 0.0
2018-Jul-21 00:29N 29°22' W 094°53'0 0.0
2018-Jul-20 23:29N 29°22' W 094°53'0 0.4
2018-Jul-20 22:47N 29°22' W 094°53'2 5.4
2018-Jul-20 22:28N 29°23' W 094°51'3 5.8
2018-Jul-20 22:00N 29°22' W 094°48'10 7.1
2018-Jul-20 20:36N 29°31' W 094°53'1 7.2
2018-Jul-20 20:28N 29°32' W 094°54'3 7.0
2018-Jul-20 20:00N 29°35' W 094°56'4 7.1
2018-Jul-20 19:30N 29°38' W 094°58'4 7.1
2018-Jul-20 19:00N 29°41' W 094°59'4 6.4
2018-Jul-20 18:23N 29°44' W 095°02'12 1.4
2018-Jul-20 09:50N 29°43' W 095°17'0 0.0
2018-Jul-20 09:26N 29°43' W 095°17'0 0.0
2018-Jul-20 08:56N 29°43' W 095°17'0 0.0
2018-Jul-20 07:41N 29°43' W 095°17'0 0.0
2018-Jul-20 07:11N 29°43' W 095°17'0 0.0
2018-Jul-20 06:41N 29°43' W 095°17'0 0.0
2018-Jul-20 06:29N 29°43' W 095°17'0 0.2
2018-Jul-20 03:17N 29°43' W 095°16'5 6.0
2018-Jul-20 02:22N 29°45' W 095°10'8 5.1
2018-Jul-20 00:45N 29°42' W 095°01'2 6.7
2018-Jul-20 00:30N 29°41' W 094°59'1 0.1
2018-Jul-19 14:27N 29°41' W 095°00'0 0.0
2018-Jul-19 13:27N 29°41' W 095°00'0 0.0
2018-Jul-19 12:36N 29°41' W 095°00'0 0.0
2018-Jul-19 11:45N 29°41' W 095°00'0 0.0
2018-Jul-19 11:23N 29°41' W 095°00'0 0.0
2018-Jul-19 10:45N 29°41' W 095°00'0 1.0
2018-Jul-19 10:21N 29°41' W 095°00'0 0.0
2018-Jul-19 09:51N 29°41' W 095°00'0 0.0
2018-Jul-19 09:30N 29°41' W 095°00'0 0.0
2018-Jul-19 08:54N 29°41' W 095°00'0 0.0
2018-Jul-19 06:48N 29°41' W 095°00'0 0.0
2018-Jul-19 06:21N 29°41' W 095°00'0 0.7
2018-Jul-19 05:57N 29°41' W 095°00'0 0.3
2018-Jul-19 05:31N 29°41' W 095°00'2 4.8
2018-Jul-19 05:00N 29°39' W 094°58'3 5.2
2018-Jul-19 04:31N 29°37' W 094°59'1 2.8
2018-Jul-19 03:58N 29°37' W 095°00'0 0.0
2018-Jul-19 03:28N 29°37' W 095°00'0 0.0
2018-Jul-19 02:58N 29°37' W 095°00'0 0.0
2018-Jul-19 02:28N 29°37' W 095°00'0 0.0
2018-Jul-19 01:58N 29°37' W 095°00'0 0.0
2018-Jul-19 01:28N 29°37' W 095°00'0 0.0
2018-Jul-19 00:58N 29°37' W 095°00'0 0.0
2018-Jul-19 00:28N 29°37' W 095°00'0 0.0
2018-Jul-18 22:46N 29°37' W 095°00'0 0.0
2018-Jul-18 22:25N 29°37' W 095°00'0 0.0
2018-Jul-18 19:23N 29°37' W 095°00'0 0.0
2018-Jul-18 16:06N 29°37' W 095°00'0 1.9
2018-Jul-18 16:00N 29°37' W 095°00'2 4.5
2018-Jul-18 15:28N 29°38' W 094°58'3 6.9
2018-Jul-18 14:58N 29°41' W 094°59'7 6.0
2018-Jul-18 13:44N 29°46' W 095°06'1 1.7
2018-Jul-18 13:18N 29°47' W 095°06'2 4.6
2018-Jul-18 12:47N 29°44' W 095°07'2 7.1
2018-Jul-18 12:30N 29°44' W 095°09'3 6.0
2018-Jul-18 11:56N 29°43' W 095°13'3 0.8
2018-Jul-18 08:32N 29°43' W 095°16'1 4.6
2018-Jul-18 08:22N 29°44' W 095°15'3 6.8
2018-Jul-18 07:58N 29°44' W 095°12'4 7.6
2018-Jul-18 07:29N 29°44' W 095°08'4 7.2
2018-Jul-18 06:59N 29°46' W 095°04'4 7.7
2018-Jul-18 06:30N 29°43' W 095°01'4 7.8
2018-Jul-18 05:59N 29°40' W 094°58'4 8.5
2018-Jul-18 05:30N 29°36' W 094°57'4 8.5
2018-Jul-18 05:00N 29°32' W 094°54'5 8.6
2018-Jul-18 04:29N 29°29' W 094°51'4 8.9
2018-Jul-18 03:59N 29°25' W 094°49'5 5.5
2018-Jul-18 03:02N 29°25' W 094°43'1 6.3
2018-Jul-18 02:53N 29°26' W 094°43'3 7.8
2018-Jul-18 02:30N 29°28' W 094°40'5 7.9
2018-Jul-18 01:55N 29°29' W 094°35'3 8.2
2018-Jul-18 01:30N 29°31' W 094°31'5 7.5
2018-Jul-18 00:54N 29°34' W 094°27'3 6.2
2018-Jul-18 00:25N 29°36' W 094°25'3 6.7
2018-Jul-18 00:00N 29°37' W 094°22'4 7.3
2018-Jul-17 23:30N 29°38' W 094°18'4 7.4
2018-Jul-17 23:00N 29°40' W 094°14'3 6.8
2018-Jul-17 22:30N 29°41' W 094°10'3 6.0
2018-Jul-17 22:01N 29°43' W 094°08'3 7.0
2018-Jul-17 21:31N 29°45' W 094°04'4 7.3
2018-Jul-17 21:01N 29°47' W 094°01'3 6.0
2018-Jul-17 20:31N 29°49' W 093°58'4 7.1
2018-Jul-17 20:01N 29°52' W 093°56'4 8.7
2018-Jul-17 19:31N 29°55' W 093°53'3 6.9
2018-Jul-17 19:00N 29°59' W 093°52'3 4.9
2018-Jul-17 18:30N 29°60' W 093°55'1 2.4
2018-Jul-17 18:01N 29°59' W 093°54'3 5.1
2018-Jul-17 17:30N 29°58' W 093°51'0 0.6
2018-Jul-17 16:59N 29°58' W 093°52'0 0.0
2018-Jul-17 16:29N 29°58' W 093°52'0 0.0
2018-Jul-17 15:59N 29°58' W 093°52'0 0.0
2018-Jul-17 15:29N 29°58' W 093°52'0 0.0
2018-Jul-17 14:59N 29°58' W 093°52'0 0.0
2018-Jul-17 14:29N 29°58' W 093°52'0 0.0
2018-Jul-17 13:59N 29°58' W 093°52'0 0.0
2018-Jul-17 13:29N 29°58' W 093°52'0 0.0
2018-Jul-17 12:59N 29°58' W 093°52'0 0.0
2018-Jul-17 12:29N 29°58' W 093°52'0 0.0
2018-Jul-17 11:59N 29°58' W 093°52'0 0.0
2018-Jul-17 11:29N 29°58' W 093°52'0 0.0
2018-Jul-17 10:56N 29°58' W 093°52'0 0.0
2018-Jul-17 10:29N 29°58' W 093°52'0 0.0
2018-Jul-17 09:59N 29°58' W 093°52'1 3.0
2018-Jul-17 09:30N 29°59' W 093°53'2 4.2
2018-Jul-17 09:01N 29°60' W 093°55'3 5.0
2018-Jul-17 08:30N 29°59' W 093°52'3 5.3
2018-Jul-17 08:00N 29°59' W 093°49'5 9.0
2018-Jul-17 07:28N 30°01' W 093°45'4 8.0
2018-Jul-17 07:00N 30°04' W 093°41'4 8.3
2018-Jul-17 06:30N 30°04' W 093°36'3 5.2
2018-Jul-17 06:00N 30°04' W 093°33'3 5.2
2018-Jul-17 05:25N 30°04' W 093°30'2 5.0
2018-Jul-17 05:00N 30°04' W 093°27'3 5.4
2018-Jul-17 04:28N 30°04' W 093°24'3 5.2
2018-Jul-17 03:52N 30°04' W 093°21'2 5.0
2018-Jul-17 03:30N 30°06' W 093°20'4 7.1
2018-Jul-17 03:01N 30°09' W 093°20'2 3.8
2018-Jul-17 02:28N 30°11' W 093°18'0 0.0
2018-Jul-17 01:55N 30°11' W 093°18'0 0.0
2018-Jul-17 01:28N 30°11' W 093°18'0 0.0
2018-Jul-17 00:58N 30°11' W 093°18'0 0.0
2018-Jul-17 00:28N 30°11' W 093°18'0 0.0
2018-Jul-16 23:28N 30°11' W 093°18'0 0.0
2018-Jul-16 22:58N 30°11' W 093°18'0 0.0
2018-Jul-16 22:28N 30°11' W 093°18'0 0.1
2018-Jul-16 21:58N 30°11' W 093°18'0 0.1
2018-Jul-16 21:26N 30°11' W 093°18'2 5.0
2018-Jul-16 21:00N 30°12' W 093°17'2 4.3
2018-Jul-16 20:30N 30°14' W 093°15'0 0.0
2018-Jul-16 13:33N 30°14' W 093°15'0 0.0
2018-Jul-16 13:03N 30°14' W 093°15'0 0.0
2018-Jul-16 12:39N 30°14' W 093°15'0 0.0
2018-Jul-16 12:30N 30°14' W 093°15'0 0.0
2018-Jul-16 11:57N 30°14' W 093°15'0 0.0
2018-Jul-16 11:30N 30°14' W 093°15'0 0.0
2018-Jul-16 11:00N 30°14' W 093°15'0 0.0
2018-Jul-16 03:24N 30°14' W 093°15'1 1.7
2018-Jul-16 03:00N 30°13' W 093°14'3 6.5
2018-Jul-16 02:30N 30°12' W 093°18'4 7.0
2018-Jul-16 02:00N 30°08' W 093°20'4 7.2
2018-Jul-16 01:30N 30°05' W 093°20'3 5.4
2018-Jul-16 01:00N 30°04' W 093°23'3 6.6
2018-Jul-16 00:30N 30°04' W 093°26'3 6.4
2018-Jul-16 00:00N 30°04' W 093°30'3 6.7
2018-Jul-15 23:30N 30°04' W 093°34'4 7.3
2018-Jul-15 23:00N 30°04' W 093°38'4 7.6
2018-Jul-15 22:29N 30°03' W 093°43'4 7.8
2018-Jul-15 22:00N 30°01' W 093°46'4 8.0
2018-Jul-15 21:30N 29°59' W 093°50'2 3.2
2018-Jul-15 20:59N 29°58' W 093°51'0 0.0
2018-Jul-15 20:29N 29°58' W 093°51'3 6.1
2018-Jul-15 20:01N 29°55' W 093°53'4 8.4
2018-Jul-15 19:30N 29°52' W 093°56'4 7.3
2018-Jul-15 19:00N 29°49' W 093°59'3 6.5
2018-Jul-15 18:30N 29°47' W 094°01'4 7.3
2018-Jul-15 18:00N 29°45' W 094°05'4 7.3
2018-Jul-15 17:30N 29°42' W 094°08'3 6.8
2018-Jul-15 17:01N 29°41' W 094°12'3 6.8
2018-Jul-15 16:31N 29°39' W 094°15'3 6.7
2018-Jul-15 16:00N 29°38' W 094°19'3 6.7
2018-Jul-15 15:29N 29°36' W 094°22'3 5.4
2018-Jul-15 15:00N 29°35' W 094°25'4 6.0
2018-Jul-15 14:23N 29°33' W 094°28'3 7.1
2018-Jul-15 14:00N 29°31' W 094°30'4 7.3
2018-Jul-15 13:30N 29°30' W 094°34'4 7.4
2018-Jul-15 12:58N 29°28' W 094°38'5 7.6
2018-Jul-15 12:18N 29°25' W 094°43'2 8.1
2018-Jul-15 12:00N 29°24' W 094°45'9 5.4
2018-Jul-15 10:22N 29°30' W 094°52'3 8.2
2018-Jul-15 10:00N 29°33' W 094°54'4 8.4
2018-Jul-15 09:30N 29°36' W 094°57'5 8.9
2018-Jul-15 09:00N 29°40' W 094°59'8 4.4
2018-Jul-15 07:15N 29°45' W 095°06'0 0.0
2018-Jul-15 06:09N 29°45' W 095°06'0 0.0
2018-Jul-15 06:00N 29°45' W 095°06'0 0.0
2018-Jul-15 05:27N 29°45' W 095°06'0 0.0
2018-Jul-15 05:00N 29°45' W 095°06'0 0.0
2018-Jul-15 04:31N 29°45' W 095°06'0 0.0
2018-Jul-15 04:00N 29°45' W 095°06'0 0.0
2018-Jul-15 03:27N 29°45' W 095°06'0 0.0
2018-Jul-15 02:57N 29°45' W 095°06'0 0.0
2018-Jul-15 02:31N 29°45' W 095°06'0 0.0
2018-Jul-15 01:58N 29°45' W 095°06'0 0.0
2018-Jul-15 01:30N 29°45' W 095°06'0 0.0
2018-Jul-15 01:00N 29°45' W 095°06'3 4.4
2018-Jul-15 00:22N 29°44' W 095°09'5 0.2
2018-Jul-13 19:21N 29°44' W 095°03'  

Dump ship's entire track history